sensor_id;sensor_type;location;lat;lon;timestamp;P1;durP1;ratioP1;P2;durP2;ratioP2
18021;SDS011;9136;48.822;7.966;2023-05-10T00:00:01;19.00;;;18.20;;
18021;SDS011;9136;48.822;7.966;2023-05-10T00:02:50;17.17;;;16.47;;
18021;SDS011;9136;48.822;7.966;2023-05-10T00:05:38;19.03;;;18.23;;
18021;SDS011;9136;48.822;7.966;2023-05-10T00:08:26;20.00;;;19.10;;
18021;SDS011;9136;48.822;7.966;2023-05-10T00:11:14;17.47;;;16.70;;
18021;SDS011;9136;48.822;7.966;2023-05-10T00:14:01;19.03;;;18.23;;
18021;SDS011;9136;48.822;7.966;2023-05-10T00:16:51;19.57;;;18.73;;
18021;SDS011;9136;48.822;7.966;2023-05-10T00:19:38;19.27;;;18.37;;
18021;SDS011;9136;48.822;7.966;2023-05-10T00:22:26;18.13;;;17.33;;
18021;SDS011;9136;48.822;7.966;2023-05-10T00:25:14;18.90;;;18.10;;
18021;SDS011;9136;48.822;7.966;2023-05-10T00:28:01;18.83;;;18.03;;
18021;SDS011;9136;48.822;7.966;2023-05-10T00:30:49;19.23;;;18.43;;
18021;SDS011;9136;48.822;7.966;2023-05-10T00:33:38;18.87;;;18.07;;
18021;SDS011;9136;48.822;7.966;2023-05-10T00:36:25;17.20;;;16.47;;
18021;SDS011;9136;48.822;7.966;2023-05-10T00:39:13;19.77;;;18.87;;
18021;SDS011;9136;48.822;7.966;2023-05-10T00:42:01;20.40;;;19.50;;
18021;SDS011;9136;48.822;7.966;2023-05-10T00:44:50;17.23;;;16.50;;
18021;SDS011;9136;48.822;7.966;2023-05-10T00:47:38;20.70;;;19.40;;
18021;SDS011;9136;48.822;7.966;2023-05-10T00:50:28;18.33;;;17.53;;
18021;SDS011;9136;48.822;7.966;2023-05-10T00:53:16;18.20;;;17.40;;
18021;SDS011;9136;48.822;7.966;2023-05-10T00:56:04;18.00;;;17.20;;
18021;SDS011;9136;48.822;7.966;2023-05-10T00:58:52;18.33;;;17.53;;
18021;SDS011;9136;48.822;7.966;2023-05-10T01:01:40;18.80;;;17.90;;
18021;SDS011;9136;48.822;7.966;2023-05-10T01:04:27;19.80;;;18.90;;
18021;SDS011;9136;48.822;7.966;2023-05-10T01:07:17;18.73;;;17.93;;
18021;SDS011;9136;48.822;7.966;2023-05-10T01:10:05;20.57;;;19.67;;
18021;SDS011;9136;48.822;7.966;2023-05-10T01:12:54;18.90;;;18.10;;
18021;SDS011;9136;48.822;7.966;2023-05-10T01:15:43;18.10;;;17.30;;
18021;SDS011;9136;48.822;7.966;2023-05-10T01:18:31;17.60;;;16.80;;
18021;SDS011;9136;48.822;7.966;2023-05-10T01:21:22;18.60;;;17.80;;
18021;SDS011;9136;48.822;7.966;2023-05-10T01:24:22;18.43;;;17.60;;
18021;SDS011;9136;48.822;7.966;2023-05-10T01:27:42;19.07;;;18.27;;
18021;SDS011;9136;48.822;7.966;2023-05-10T01:31:08;18.30;;;17.50;;
18021;SDS011;9136;48.822;7.966;2023-05-10T01:34:11;16.43;;;15.67;;
18021;SDS011;9136;48.822;7.966;2023-05-10T01:37:04;17.73;;;16.83;;
18021;SDS011;9136;48.822;7.966;2023-05-10T01:39:58;17.07;;;16.37;;
18021;SDS011;9136;48.822;7.966;2023-05-10T01:42:51;17.17;;;16.47;;
18021;SDS011;9136;48.822;7.966;2023-05-10T01:45:44;18.73;;;17.93;;
18021;SDS011;9136;48.822;7.966;2023-05-10T01:48:38;16.97;;;16.27;;
18021;SDS011;9136;48.822;7.966;2023-05-10T01:51:36;18.63;;;17.80;;
18021;SDS011;9136;48.822;7.966;2023-05-10T01:54:29;18.30;;;17.50;;
18021;SDS011;9136;48.822;7.966;2023-05-10T01:57:18;18.23;;;17.43;;
18021;SDS011;9136;48.822;7.966;2023-05-10T02:00:09;17.77;;;16.97;;
18021;SDS011;9136;48.822;7.966;2023-05-10T02:02:59;16.87;;;16.17;;
18021;SDS011;9136;48.822;7.966;2023-05-10T02:05:51;19.00;;;18.20;;
18021;SDS011;9136;48.822;7.966;2023-05-10T02:08:43;18.50;;;17.70;;
18021;SDS011;9136;48.822;7.966;2023-05-10T02:11:33;19.30;;;18.47;;
18021;SDS011;9136;48.822;7.966;2023-05-10T02:14:25;20.13;;;19.23;;
18021;SDS011;9136;48.822;7.966;2023-05-10T02:17:14;17.47;;;16.67;;
18021;SDS011;9136;48.822;7.966;2023-05-10T02:20:04;19.20;;;18.10;;
18021;SDS011;9136;48.822;7.966;2023-05-10T02:22:54;18.40;;;17.60;;
18021;SDS011;9136;48.822;7.966;2023-05-10T02:25:46;18.20;;;17.40;;
18021;SDS011;9136;48.822;7.966;2023-05-10T02:28:36;20.00;;;19.10;;
18021;SDS011;9136;48.822;7.966;2023-05-10T02:31:24;19.93;;;18.97;;
18021;SDS011;9136;48.822;7.966;2023-05-10T02:34:13;18.43;;;17.63;;
18021;SDS011;9136;48.822;7.966;2023-05-10T02:37:01;19.70;;;18.80;;
18021;SDS011;9136;48.822;7.966;2023-05-10T02:39:50;18.27;;;17.47;;
18021;SDS011;9136;48.822;7.966;2023-05-10T02:42:43;19.13;;;18.30;;
18021;SDS011;9136;48.822;7.966;2023-05-10T02:45:33;17.67;;;16.87;;
18021;SDS011;9136;48.822;7.966;2023-05-10T02:48:24;18.70;;;17.90;;
18021;SDS011;9136;48.822;7.966;2023-05-10T02:51:12;19.37;;;18.47;;
18021;SDS011;9136;48.822;7.966;2023-05-10T02:54:07;18.37;;;17.57;;
18021;SDS011;9136;48.822;7.966;2023-05-10T02:56:58;18.63;;;17.83;;
18021;SDS011;9136;48.822;7.966;2023-05-10T02:59:49;18.37;;;17.47;;
18021;SDS011;9136;48.822;7.966;2023-05-10T03:02:37;17.90;;;17.10;;
18021;SDS011;9136;48.822;7.966;2023-05-10T03:05:25;17.97;;;17.17;;
18021;SDS011;9136;48.822;7.966;2023-05-10T03:08:13;17.90;;;17.10;;
18021;SDS011;9136;48.822;7.966;2023-05-10T03:11:10;17.83;;;17.03;;
18021;SDS011;9136;48.822;7.966;2023-05-10T03:14:15;19.43;;;18.60;;
18021;SDS011;9136;48.822;7.966;2023-05-10T03:17:22;18.27;;;17.47;;
18021;SDS011;9136;48.822;7.966;2023-05-10T03:20:16;18.80;;;18.00;;
18021;SDS011;9136;48.822;7.966;2023-05-10T03:23:11;19.40;;;18.60;;
18021;SDS011;9136;48.822;7.966;2023-05-10T03:26:04;19.13;;;18.23;;
18021;SDS011;9136;48.822;7.966;2023-05-10T03:28:53;17.43;;;16.63;;
18021;SDS011;9136;48.822;7.966;2023-05-10T03:31:42;18.13;;;17.33;;
18021;SDS011;9136;48.822;7.966;2023-05-10T03:34:32;18.60;;;17.80;;
18021;SDS011;9136;48.822;7.966;2023-05-10T03:37:20;18.40;;;17.60;;
18021;SDS011;9136;48.822;7.966;2023-05-10T03:40:09;18.47;;;17.67;;
18021;SDS011;9136;48.822;7.966;2023-05-10T03:42:57;18.27;;;17.47;;
18021;SDS011;9136;48.822;7.966;2023-05-10T03:45:45;16.87;;;16.13;;
18021;SDS011;9136;48.822;7.966;2023-05-10T03:48:33;19.33;;;18.50;;
18021;SDS011;9136;48.822;7.966;2023-05-10T03:51:22;19.87;;;18.87;;
18021;SDS011;9136;48.822;7.966;2023-05-10T03:54:13;18.93;;;18.10;;
18021;SDS011;9136;48.822;7.966;2023-05-10T03:57:01;19.10;;;18.30;;
18021;SDS011;9136;48.822;7.966;2023-05-10T03:59:49;18.10;;;17.30;;
18021;SDS011;9136;48.822;7.966;2023-05-10T04:02:37;16.73;;;16.03;;
18021;SDS011;9136;48.822;7.966;2023-05-10T04:05:25;18.77;;;17.97;;
18021;SDS011;9136;48.822;7.966;2023-05-10T04:08:15;18.97;;;18.07;;
18021;SDS011;9136;48.822;7.966;2023-05-10T04:11:06;16.93;;;16.13;;
18021;SDS011;9136;48.822;7.966;2023-05-10T04:13:54;17.87;;;17.07;;
18021;SDS011;9136;48.822;7.966;2023-05-10T04:16:42;20.10;;;18.67;;
18021;SDS011;9136;48.822;7.966;2023-05-10T04:19:30;20.57;;;19.27;;
18021;SDS011;9136;48.822;7.966;2023-05-10T04:22:18;20.33;;;19.27;;
18021;SDS011;9136;48.822;7.966;2023-05-10T04:25:07;20.93;;;19.93;;
18021;SDS011;9136;48.822;7.966;2023-05-10T04:27:55;18.33;;;17.53;;
18021;SDS011;9136;48.822;7.966;2023-05-10T04:30:43;19.23;;;18.33;;
18021;SDS011;9136;48.822;7.966;2023-05-10T04:33:31;17.30;;;16.50;;
18021;SDS011;9136;48.822;7.966;2023-05-10T04:36:19;18.20;;;17.40;;
18021;SDS011;9136;48.822;7.966;2023-05-10T04:39:07;18.60;;;17.80;;
18021;SDS011;9136;48.822;7.966;2023-05-10T04:41:57;18.80;;;18.00;;
18021;SDS011;9136;48.822;7.966;2023-05-10T04:44:44;19.37;;;18.47;;
18021;SDS011;9136;48.822;7.966;2023-05-10T04:47:32;18.77;;;17.97;;
18021;SDS011;9136;48.822;7.966;2023-05-10T04:50:20;21.03;;;20.10;;
18021;SDS011;9136;48.822;7.966;2023-05-10T04:53:08;18.07;;;17.27;;
18021;SDS011;9136;48.822;7.966;2023-05-10T04:55:56;19.07;;;18.27;;
18021;SDS011;9136;48.822;7.966;2023-05-10T04:58:45;18.37;;;17.57;;
18021;SDS011;9136;48.822;7.966;2023-05-10T05:01:33;18.83;;;18.03;;
18021;SDS011;9136;48.822;7.966;2023-05-10T05:04:20;19.20;;;18.30;;
18021;SDS011;9136;48.822;7.966;2023-05-10T05:07:09;19.87;;;18.93;;
18021;SDS011;9136;48.822;7.966;2023-05-10T05:09:57;21.27;;;20.37;;
18021;SDS011;9136;48.822;7.966;2023-05-10T05:12:44;17.80;;;17.00;;
18021;SDS011;9136;48.822;7.966;2023-05-10T05:15:33;19.63;;;18.73;;
18021;SDS011;9136;48.822;7.966;2023-05-10T05:18:21;17.63;;;16.83;;
18021;SDS011;9136;48.822;7.966;2023-05-10T05:21:15;17.97;;;17.17;;
18021;SDS011;9136;48.822;7.966;2023-05-10T05:24:03;18.40;;;17.60;;
18021;SDS011;9136;48.822;7.966;2023-05-10T05:26:52;17.73;;;16.93;;
18021;SDS011;9136;48.822;7.966;2023-05-10T05:29:40;18.80;;;17.83;;
18021;SDS011;9136;48.822;7.966;2023-05-10T05:32:29;19.67;;;18.77;;
18021;SDS011;9136;48.822;7.966;2023-05-10T05:35:17;19.83;;;18.93;;
18021;SDS011;9136;48.822;7.966;2023-05-10T05:38:05;17.83;;;17.03;;
18021;SDS011;9136;48.822;7.966;2023-05-10T05:40:53;18.23;;;17.43;;
18021;SDS011;9136;48.822;7.966;2023-05-10T05:43:40;19.43;;;18.43;;
18021;SDS011;9136;48.822;7.966;2023-05-10T05:46:28;15.83;;;15.13;;
18021;SDS011;9136;48.822;7.966;2023-05-10T05:49:17;18.93;;;18.10;;
18021;SDS011;9136;48.822;7.966;2023-05-10T05:52:05;18.67;;;17.87;;
18021;SDS011;9136;48.822;7.966;2023-05-10T05:54:52;18.40;;;17.60;;
18021;SDS011;9136;48.822;7.966;2023-05-10T05:57:40;18.43;;;17.53;;
18021;SDS011;9136;48.822;7.966;2023-05-10T06:00:28;18.43;;;17.63;;
18021;SDS011;9136;48.822;7.966;2023-05-10T06:03:16;19.00;;;18.20;;
18021;SDS011;9136;48.822;7.966;2023-05-10T06:06:05;17.10;;;16.30;;
18021;SDS011;9136;48.822;7.966;2023-05-10T06:08:53;16.80;;;16.10;;
18021;SDS011;9136;48.822;7.966;2023-05-10T06:11:41;18.53;;;17.73;;
18021;SDS011;9136;48.822;7.966;2023-05-10T06:14:29;18.70;;;17.90;;
18021;SDS011;9136;48.822;7.966;2023-05-10T06:17:16;17.77;;;16.97;;
18021;SDS011;9136;48.822;7.966;2023-05-10T06:20:05;17.03;;;16.23;;
18021;SDS011;9136;48.822;7.966;2023-05-10T06:22:55;17.40;;;16.60;;
18021;SDS011;9136;48.822;7.966;2023-05-10T06:25:43;19.70;;;18.57;;
18021;SDS011;9136;48.822;7.966;2023-05-10T06:28:31;18.93;;;18.03;;
18021;SDS011;9136;48.822;7.966;2023-05-10T06:31:19;18.27;;;17.47;;
18021;SDS011;9136;48.822;7.966;2023-05-10T06:34:07;17.13;;;16.33;;
18021;SDS011;9136;48.822;7.966;2023-05-10T06:36:55;17.07;;;16.37;;
18021;SDS011;9136;48.822;7.966;2023-05-10T06:39:44;17.80;;;17.00;;
18021;SDS011;9136;48.822;7.966;2023-05-10T06:42:32;16.67;;;15.97;;
18021;SDS011;9136;48.822;7.966;2023-05-10T06:45:20;17.80;;;17.00;;
18021;SDS011;9136;48.822;7.966;2023-05-10T06:48:08;16.67;;;15.87;;
18021;SDS011;9136;48.822;7.966;2023-05-10T06:50:56;18.47;;;17.67;;
18021;SDS011;9136;48.822;7.966;2023-05-10T06:53:43;20.13;;;19.10;;
18021;SDS011;9136;48.822;7.966;2023-05-10T06:56:33;21.27;;;20.20;;
18021;SDS011;9136;48.822;7.966;2023-05-10T06:59:21;18.73;;;17.93;;
18021;SDS011;9136;48.822;7.966;2023-05-10T07:02:09;17.40;;;16.67;;
18021;SDS011;9136;48.822;7.966;2023-05-10T07:04:56;18.97;;;18.17;;
18021;SDS011;9136;48.822;7.966;2023-05-10T07:07:44;17.80;;;17.00;;
18021;SDS011;9136;48.822;7.966;2023-05-10T07:10:32;17.27;;;16.53;;
18021;SDS011;9136;48.822;7.966;2023-05-10T07:13:21;18.90;;;18.10;;
18021;SDS011;9136;48.822;7.966;2023-05-10T07:16:09;18.73;;;17.90;;
18021;SDS011;9136;48.822;7.966;2023-05-10T07:18:57;17.40;;;16.60;;
18021;SDS011;9136;48.822;7.966;2023-05-10T07:21:45;18.73;;;17.93;;
18021;SDS011;9136;48.822;7.966;2023-05-10T07:24:33;18.47;;;17.67;;
18021;SDS011;9136;48.822;7.966;2023-05-10T07:27:21;17.70;;;16.90;;
18021;SDS011;9136;48.822;7.966;2023-05-10T07:30:12;17.60;;;16.80;;
18021;SDS011;9136;48.822;7.966;2023-05-10T07:33:00;17.33;;;16.53;;
18021;SDS011;9136;48.822;7.966;2023-05-10T07:35:49;19.00;;;18.13;;
18021;SDS011;9136;48.822;7.966;2023-05-10T07:38:37;17.07;;;16.37;;
18021;SDS011;9136;48.822;7.966;2023-05-10T07:41:25;19.63;;;18.73;;
18021;SDS011;9136;48.822;7.966;2023-05-10T07:44:13;18.70;;;17.90;;
18021;SDS011;9136;48.822;7.966;2023-05-10T07:47:02;17.67;;;16.87;;
18021;SDS011;9136;48.822;7.966;2023-05-10T07:49:50;18.67;;;17.87;;
18021;SDS011;9136;48.822;7.966;2023-05-10T07:52:38;18.23;;;17.27;;
18021;SDS011;9136;48.822;7.966;2023-05-10T07:55:26;16.77;;;16.07;;
18021;SDS011;9136;48.822;7.966;2023-05-10T07:58:13;18.47;;;17.67;;
18021;SDS011;9136;48.822;7.966;2023-05-10T08:01:01;18.73;;;17.93;;
18021;SDS011;9136;48.822;7.966;2023-05-10T08:03:51;16.53;;;15.83;;
18021;SDS011;9136;48.822;7.966;2023-05-10T08:06:39;16.80;;;16.10;;
18021;SDS011;9136;48.822;7.966;2023-05-10T08:09:27;18.97;;;18.17;;
18021;SDS011;9136;48.822;7.966;2023-05-10T08:12:14;17.67;;;16.87;;
18021;SDS011;9136;48.822;7.966;2023-05-10T08:15:02;19.63;;;18.17;;
18021;SDS011;9136;48.822;7.966;2023-05-10T08:17:50;17.20;;;16.30;;
18021;SDS011;9136;48.822;7.966;2023-05-10T08:20:40;16.77;;;16.07;;
18021;SDS011;9136;48.822;7.966;2023-05-10T08:23:27;16.00;;;15.30;;
18021;SDS011;9136;48.822;7.966;2023-05-10T08:26:15;17.70;;;16.43;;
18021;SDS011;9136;48.822;7.966;2023-05-10T08:29:03;16.93;;;16.23;;
18021;SDS011;9136;48.822;7.966;2023-05-10T08:31:51;17.67;;;16.90;;
18021;SDS011;9136;48.822;7.966;2023-05-10T08:34:38;19.20;;;18.40;;
18021;SDS011;9136;48.822;7.966;2023-05-10T08:37:28;19.00;;;18.20;;
18021;SDS011;9136;48.822;7.966;2023-05-10T08:40:18;17.43;;;16.67;;
18021;SDS011;9136;48.822;7.966;2023-05-10T08:43:09;17.83;;;17.03;;
18021;SDS011;9136;48.822;7.966;2023-05-10T08:45:59;16.60;;;15.90;;
18021;SDS011;9136;48.822;7.966;2023-05-10T08:48:49;17.63;;;16.83;;
18021;SDS011;9136;48.822;7.966;2023-05-10T08:51:40;17.90;;;17.10;;
18021;SDS011;9136;48.822;7.966;2023-05-10T08:54:33;16.80;;;16.10;;
18021;SDS011;9136;48.822;7.966;2023-05-10T08:57:20;17.70;;;16.90;;
18021;SDS011;9136;48.822;7.966;2023-05-10T09:00:09;16.23;;;15.53;;
18021;SDS011;9136;48.822;7.966;2023-05-10T09:02:57;17.60;;;16.80;;
18021;SDS011;9136;48.822;7.966;2023-05-10T09:05:45;17.07;;;16.27;;
18021;SDS011;9136;48.822;7.966;2023-05-10T09:08:33;19.23;;;18.17;;
18021;SDS011;9136;48.822;7.966;2023-05-10T09:11:25;16.07;;;15.37;;
18021;SDS011;9136;48.822;7.966;2023-05-10T09:14:15;16.87;;;16.17;;
18021;SDS011;9136;48.822;7.966;2023-05-10T09:17:03;18.27;;;17.47;;
18021;SDS011;9136;48.822;7.966;2023-05-10T09:19:56;16.93;;;16.23;;
18021;SDS011;9136;48.822;7.966;2023-05-10T09:22:44;19.33;;;18.37;;
18021;SDS011;9136;48.822;7.966;2023-05-10T09:25:33;15.13;;;14.43;;
18021;SDS011;9136;48.822;7.966;2023-05-10T09:28:22;16.33;;;15.63;;
18021;SDS011;9136;48.822;7.966;2023-05-10T09:31:10;16.50;;;15.80;;
18021;SDS011;9136;48.822;7.966;2023-05-10T09:33:58;15.73;;;15.03;;
18021;SDS011;9136;48.822;7.966;2023-05-10T09:36:53;16.57;;;15.87;;
18021;SDS011;9136;48.822;7.966;2023-05-10T09:39:42;15.27;;;14.57;;
18021;SDS011;9136;48.822;7.966;2023-05-10T09:42:29;17.23;;;16.30;;
18021;SDS011;9136;48.822;7.966;2023-05-10T09:45:19;16.67;;;15.97;;
18021;SDS011;9136;48.822;7.966;2023-05-10T09:48:07;16.80;;;16.10;;
18021;SDS011;9136;48.822;7.966;2023-05-10T09:50:58;16.43;;;15.73;;
18021;SDS011;9136;48.822;7.966;2023-05-10T09:53:46;16.17;;;15.47;;
18021;SDS011;9136;48.822;7.966;2023-05-10T09:56:36;15.60;;;14.90;;
18021;SDS011;9136;48.822;7.966;2023-05-10T09:59:26;16.40;;;15.70;;
18021;SDS011;9136;48.822;7.966;2023-05-10T10:02:16;14.60;;;13.97;;
18021;SDS011;9136;48.822;7.966;2023-05-10T10:05:05;15.43;;;14.77;;
18021;SDS011;9136;48.822;7.966;2023-05-10T10:07:54;14.80;;;14.20;;
18021;SDS011;9136;48.822;7.966;2023-05-10T10:10:44;16.00;;;15.30;;
18021;SDS011;9136;48.822;7.966;2023-05-10T10:13:31;14.57;;;13.97;;
18021;SDS011;9136;48.822;7.966;2023-05-10T10:16:19;16.93;;;16.23;;
18021;SDS011;9136;48.822;7.966;2023-05-10T10:19:09;15.10;;;14.40;;
18021;SDS011;9136;48.822;7.966;2023-05-10T10:21:57;14.53;;;13.93;;
18021;SDS011;9136;48.822;7.966;2023-05-10T10:24:45;15.10;;;14.40;;
18021;SDS011;9136;48.822;7.966;2023-05-10T10:27:36;17.57;;;16.20;;
18021;SDS011;9136;48.822;7.966;2023-05-10T10:30:35;14.80;;;14.20;;
18021;SDS011;9136;48.822;7.966;2023-05-10T10:33:30;14.03;;;13.43;;
18021;SDS011;9136;48.822;7.966;2023-05-10T10:36:28;13.80;;;13.10;;
18021;SDS011;9136;48.822;7.966;2023-05-10T10:39:16;16.60;;;15.90;;
18021;SDS011;9136;48.822;7.966;2023-05-10T10:42:05;14.90;;;14.30;;
18021;SDS011;9136;48.822;7.966;2023-05-10T10:44:59;14.70;;;14.10;;
18021;SDS011;9136;48.822;7.966;2023-05-10T10:48:20;15.10;;;14.50;;
18021;SDS011;9136;48.822;7.966;2023-05-10T10:51:08;14.70;;;14.10;;
18021;SDS011;9136;48.822;7.966;2023-05-10T10:53:58;14.70;;;14.10;;
18021;SDS011;9136;48.822;7.966;2023-05-10T10:57:09;15.10;;;14.40;;
18021;SDS011;9136;48.822;7.966;2023-05-10T11:03:08;14.30;;;13.70;;
18021;SDS011;9136;48.822;7.966;2023-05-10T11:05:59;13.97;;;13.37;;
18021;SDS011;9136;48.822;7.966;2023-05-10T11:08:47;15.30;;;14.63;;
18021;SDS011;9136;48.822;7.966;2023-05-10T11:11:38;14.60;;;14.00;;
18021;SDS011;9136;48.822;7.966;2023-05-10T11:14:36;14.23;;;13.63;;
18021;SDS011;9136;48.822;7.966;2023-05-10T11:17:24;14.43;;;13.83;;
18021;SDS011;9136;48.822;7.966;2023-05-10T11:20:14;13.17;;;12.63;;
18021;SDS011;9136;48.822;7.966;2023-05-10T11:23:10;14.30;;;13.70;;
18021;SDS011;9136;48.822;7.966;2023-05-10T11:26:01;16.50;;;15.80;;
18021;SDS011;9136;48.822;7.966;2023-05-10T11:28:51;15.20;;;14.53;;
18021;SDS011;9136;48.822;7.966;2023-05-10T11:31:43;13.57;;;12.97;;
18021;SDS011;9136;48.822;7.966;2023-05-10T11:34:32;14.30;;;13.70;;
18021;SDS011;9136;48.822;7.966;2023-05-10T11:37:20;14.85;;;14.25;;
18021;SDS011;9136;48.822;7.966;2023-05-10T11:40:08;15.32;;;14.68;;
18021;SDS011;9136;48.822;7.966;2023-05-10T11:42:56;13.35;;;12.75;;
18021;SDS011;9136;48.822;7.966;2023-05-10T11:45:45;13.82;;;13.23;;
18021;SDS011;9136;48.822;7.966;2023-05-10T11:48:33;14.30;;;13.70;;
18021;SDS011;9136;48.822;7.966;2023-05-10T11:51:21;12.90;;;12.38;;
18021;SDS011;9136;48.822;7.966;2023-05-10T11:54:10;13.68;;;13.07;;
18021;SDS011;9136;48.822;7.966;2023-05-10T11:56:58;13.80;;;13.20;;
18021;SDS011;9136;48.822;7.966;2023-05-10T11:59:47;17.23;;;13.52;;
18021;SDS011;9136;48.822;7.966;2023-05-10T12:02:41;14.45;;;13.85;;
18021;SDS011;9136;48.822;7.966;2023-05-10T12:05:31;15.05;;;14.35;;
18021;SDS011;9136;48.822;7.966;2023-05-10T12:08:20;13.52;;;12.93;;
18021;SDS011;9136;48.822;7.966;2023-05-10T12:11:10;15.38;;;14.70;;
18021;SDS011;9136;48.822;7.966;2023-05-10T12:13:57;14.65;;;14.05;;
18021;SDS011;9136;48.822;7.966;2023-05-10T12:16:45;13.95;;;13.35;;
18021;SDS011;9136;48.822;7.966;2023-05-10T12:19:41;13.57;;;12.98;;
18021;SDS011;9136;48.822;7.966;2023-05-10T12:22:29;14.13;;;13.20;;
18021;SDS011;9136;48.822;7.966;2023-05-10T12:25:17;14.35;;;13.75;;
18021;SDS011;9136;48.822;7.966;2023-05-10T12:28:05;13.82;;;13.23;;
18021;SDS011;9136;48.822;7.966;2023-05-10T12:30:56;13.50;;;12.90;;
18021;SDS011;9136;48.822;7.966;2023-05-10T12:33:45;13.73;;;13.13;;
18021;SDS011;9136;48.822;7.966;2023-05-10T12:36:38;14.48;;;13.88;;
18021;SDS011;9136;48.822;7.966;2023-05-10T12:39:25;14.57;;;13.98;;
18021;SDS011;9136;48.822;7.966;2023-05-10T12:42:24;14.90;;;14.30;;
18021;SDS011;9136;48.822;7.966;2023-05-10T12:45:12;13.20;;;12.63;;
18021;SDS011;9136;48.822;7.966;2023-05-10T12:47:59;13.60;;;13.00;;
18021;SDS011;9136;48.822;7.966;2023-05-10T12:50:47;13.07;;;12.48;;
18021;SDS011;9136;48.822;7.966;2023-05-10T12:53:37;13.45;;;12.85;;
18021;SDS011;9136;48.822;7.966;2023-05-10T12:56:26;13.80;;;13.20;;
18021;SDS011;9136;48.822;7.966;2023-05-10T12:59:13;11.52;;;11.02;;
18021;SDS011;9136;48.822;7.966;2023-05-10T13:02:01;12.65;;;12.15;;
18021;SDS011;9136;48.822;7.966;2023-05-10T13:04:49;13.43;;;12.82;;
18021;SDS011;9136;48.822;7.966;2023-05-10T13:07:37;14.30;;;13.70;;
18021;SDS011;9136;48.822;7.966;2023-05-10T13:10:27;14.48;;;13.88;;
18021;SDS011;9136;48.822;7.966;2023-05-10T13:13:16;14.43;;;13.82;;
18021;SDS011;9136;48.822;7.966;2023-05-10T13:16:04;14.73;;;14.13;;
18021;SDS011;9136;48.822;7.966;2023-05-10T13:18:52;12.75;;;12.15;;
18021;SDS011;9136;48.822;7.966;2023-05-10T13:21:40;14.88;;;13.40;;
18021;SDS011;9136;48.822;7.966;2023-05-10T13:24:28;16.58;;;15.73;;
18021;SDS011;9136;48.822;7.966;2023-05-10T13:27:17;14.07;;;13.47;;
18021;SDS011;9136;48.822;7.966;2023-05-10T13:30:06;14.70;;;14.10;;
18021;SDS011;9136;48.822;7.966;2023-05-10T13:32:54;13.90;;;13.30;;
18021;SDS011;9136;48.822;7.966;2023-05-10T13:35:42;15.50;;;14.80;;
18021;SDS011;9136;48.822;7.966;2023-05-10T13:38:30;13.35;;;12.75;;
18021;SDS011;9136;48.822;7.966;2023-05-10T13:41:18;14.48;;;13.88;;
18021;SDS011;9136;48.822;7.966;2023-05-10T13:44:08;13.00;;;12.43;;
18021;SDS011;9136;48.822;7.966;2023-05-10T13:46:56;12.02;;;11.52;;
18021;SDS011;9136;48.822;7.966;2023-05-10T13:49:45;11.85;;;11.35;;
18021;SDS011;9136;48.822;7.966;2023-05-10T13:52:33;13.25;;;12.65;;
18021;SDS011;9136;48.822;7.966;2023-05-10T13:55:21;11.88;;;11.38;;
18021;SDS011;9136;48.822;7.966;2023-05-10T13:58:09;11.93;;;11.43;;
18021;SDS011;9136;48.822;7.966;2023-05-10T14:00:59;12.63;;;12.13;;
18021;SDS011;9136;48.822;7.966;2023-05-10T14:03:46;12.52;;;11.88;;
18021;SDS011;9136;48.822;7.966;2023-05-10T14:06:34;12.30;;;11.80;;
18021;SDS011;9136;48.822;7.966;2023-05-10T14:09:22;12.00;;;11.50;;
18021;SDS011;9136;48.822;7.966;2023-05-10T14:12:10;12.85;;;12.27;;
18021;SDS011;9136;48.822;7.966;2023-05-10T14:14:57;14.10;;;13.50;;
18021;SDS011;9136;48.822;7.966;2023-05-10T14:17:46;16.13;;;15.43;;
18021;SDS011;9136;48.822;7.966;2023-05-10T14:20:34;13.43;;;12.82;;
18021;SDS011;9136;48.822;7.966;2023-05-10T14:23:22;12.48;;;11.95;;
18021;SDS011;9136;48.822;7.966;2023-05-10T14:26:11;12.05;;;11.55;;
18021;SDS011;9136;48.822;7.966;2023-05-10T14:28:59;12.65;;;12.15;;
18021;SDS011;9136;48.822;7.966;2023-05-10T14:31:47;14.60;;;14.00;;
18021;SDS011;9136;48.822;7.966;2023-05-10T14:34:36;14.85;;;14.25;;
18021;SDS011;9136;48.822;7.966;2023-05-10T14:37:25;14.10;;;13.50;;
18021;SDS011;9136;48.822;7.966;2023-05-10T14:40:13;13.45;;;12.85;;
18021;SDS011;9136;48.822;7.966;2023-05-10T14:43:01;14.88;;;14.23;;
18021;SDS011;9136;48.822;7.966;2023-05-10T14:45:49;13.25;;;12.65;;
18021;SDS011;9136;48.822;7.966;2023-05-10T14:48:37;12.30;;;11.80;;
18021;SDS011;9136;48.822;7.966;2023-05-10T14:51:26;13.32;;;12.73;;
18021;SDS011;9136;48.822;7.966;2023-05-10T14:54:14;13.65;;;13.05;;
18021;SDS011;9136;48.822;7.966;2023-05-10T14:57:01;14.02;;;13.43;;
18021;SDS011;9136;48.822;7.966;2023-05-10T14:59:49;14.98;;;14.38;;
18021;SDS011;9136;48.822;7.966;2023-05-10T15:02:37;14.73;;;14.13;;
18021;SDS011;9136;48.822;7.966;2023-05-10T15:05:25;14.65;;;14.05;;
18021;SDS011;9136;48.822;7.966;2023-05-10T15:08:14;14.10;;;13.50;;
18021;SDS011;9136;48.822;7.966;2023-05-10T15:11:02;13.83;;;13.23;;
18021;SDS011;9136;48.822;7.966;2023-05-10T15:13:49;15.50;;;14.80;;
18021;SDS011;9136;48.822;7.966;2023-05-10T15:16:37;14.50;;;13.90;;
18021;SDS011;9136;48.822;7.966;2023-05-10T15:19:25;14.47;;;13.87;;
18021;SDS011;9136;48.822;7.966;2023-05-10T15:22:12;15.47;;;14.77;;
18021;SDS011;9136;48.822;7.966;2023-05-10T15:25:01;14.07;;;13.47;;
18021;SDS011;9136;48.822;7.966;2023-05-10T15:27:49;14.00;;;13.40;;
18021;SDS011;9136;48.822;7.966;2023-05-10T15:30:37;15.15;;;14.55;;
18021;SDS011;9136;48.822;7.966;2023-05-10T15:33:25;15.48;;;14.77;;
18021;SDS011;9136;48.822;7.966;2023-05-10T15:36:14;14.23;;;13.63;;
18021;SDS011;9136;48.822;7.966;2023-05-10T15:39:03;13.50;;;12.90;;
18021;SDS011;9136;48.822;7.966;2023-05-10T15:41:54;12.45;;;11.95;;
18021;SDS011;9136;48.822;7.966;2023-05-10T15:44:41;11.90;;;11.40;;
18021;SDS011;9136;48.822;7.966;2023-05-10T15:47:30;11.18;;;10.68;;
18021;SDS011;9136;48.822;7.966;2023-05-10T15:50:18;12.07;;;11.48;;
18021;SDS011;9136;48.822;7.966;2023-05-10T15:53:06;11.23;;;10.73;;
18021;SDS011;9136;48.822;7.966;2023-05-10T15:55:54;10.85;;;10.45;;
18021;SDS011;9136;48.822;7.966;2023-05-10T15:58:43;12.30;;;11.80;;
18021;SDS011;9136;48.822;7.966;2023-05-10T16:01:32;12.57;;;12.07;;
18021;SDS011;9136;48.822;7.966;2023-05-10T16:04:21;12.80;;;12.30;;
18021;SDS011;9136;48.822;7.966;2023-05-10T16:07:09;13.40;;;12.80;;
18021;SDS011;9136;48.822;7.966;2023-05-10T16:09:56;13.43;;;12.82;;
18021;SDS011;9136;48.822;7.966;2023-05-10T16:12:46;14.10;;;13.50;;
18021;SDS011;9136;48.822;7.966;2023-05-10T16:15:36;12.95;;;12.35;;
18021;SDS011;9136;48.822;7.966;2023-05-10T16:18:23;12.75;;;12.25;;
18021;SDS011;9136;48.822;7.966;2023-05-10T16:21:11;12.73;;;12.23;;
18021;SDS011;9136;48.822;7.966;2023-05-10T16:23:59;13.68;;;13.07;;
18021;SDS011;9136;48.822;7.966;2023-05-10T16:26:47;13.65;;;13.05;;
18021;SDS011;9136;48.822;7.966;2023-05-10T16:29:34;12.73;;;12.23;;
18021;SDS011;9136;48.822;7.966;2023-05-10T16:32:24;13.75;;;13.15;;
18021;SDS011;9136;48.822;7.966;2023-05-10T16:35:11;13.88;;;13.27;;
18021;SDS011;9136;48.822;7.966;2023-05-10T16:37:59;12.90;;;12.30;;
18021;SDS011;9136;48.822;7.966;2023-05-10T16:40:47;13.88;;;13.27;;
18021;SDS011;9136;48.822;7.966;2023-05-10T16:43:35;14.77;;;14.18;;
18021;SDS011;9136;48.822;7.966;2023-05-10T16:46:23;15.20;;;14.55;;